sensor_id;sensor_type;location;lat;lon;timestamp;P1;durP1;ratioP1;P2;durP2;ratioP2
73428;SDS011;61643;49.564;17.412;2023-11-21T00:01:24;5.85;;;2.90;;
73428;SDS011;61643;49.564;17.412;2023-11-21T00:03:50;5.25;;;2.70;;
73428;SDS011;61643;49.564;17.412;2023-11-21T00:06:20;5.13;;;2.75;;
73428;SDS011;61643;49.564;17.412;2023-11-21T00:08:46;8.23;;;3.55;;
73428;SDS011;61643;49.564;17.412;2023-11-21T00:11:12;6.97;;;3.35;;
73428;SDS011;61643;49.564;17.412;2023-11-21T00:13:38;6.45;;;2.97;;
73428;SDS011;61643;49.564;17.412;2023-11-21T00:16:04;5.70;;;2.90;;
73428;SDS011;61643;49.564;17.412;2023-11-21T00:18:31;8.20;;;3.75;;
73428;SDS011;61643;49.564;17.412;2023-11-21T00:20:56;7.25;;;3.22;;
73428;SDS011;61643;49.564;17.412;2023-11-21T00:23:24;6.30;;;3.40;;
73428;SDS011;61643;49.564;17.412;2023-11-21T00:25:50;6.38;;;3.20;;
73428;SDS011;61643;49.564;17.412;2023-11-21T00:28:16;7.93;;;3.70;;
73428;SDS011;61643;49.564;17.412;2023-11-21T00:30:42;8.00;;;3.28;;
73428;SDS011;61643;49.564;17.412;2023-11-21T00:33:08;4.95;;;3.03;;
73428;SDS011;61643;49.564;17.412;2023-11-21T00:35:35;6.53;;;3.25;;
73428;SDS011;61643;49.564;17.412;2023-11-21T00:38:01;6.15;;;2.97;;
73428;SDS011;61643;49.564;17.412;2023-11-21T00:40:27;7.97;;;2.90;;
73428;SDS011;61643;49.564;17.412;2023-11-21T00:42:53;5.65;;;3.10;;
73428;SDS011;61643;49.564;17.412;2023-11-21T00:45:19;6.90;;;3.05;;
73428;SDS011;61643;49.564;17.412;2023-11-21T00:47:45;6.78;;;2.95;;
73428;SDS011;61643;49.564;17.412;2023-11-21T00:50:10;9.45;;;2.97;;
73428;SDS011;61643;49.564;17.412;2023-11-21T00:52:37;6.43;;;3.33;;
73428;SDS011;61643;49.564;17.412;2023-11-21T00:55:03;7.45;;;3.45;;
73428;SDS011;61643;49.564;17.412;2023-11-21T00:57:30;5.32;;;2.90;;
73428;SDS011;61643;49.564;17.412;2023-11-21T00:59:56;3.95;;;2.65;;
73428;SDS011;61643;49.564;17.412;2023-11-21T01:02:22;7.38;;;2.97;;
73428;SDS011;61643;49.564;17.412;2023-11-21T01:04:48;6.45;;;2.80;;
73428;SDS011;61643;49.564;17.412;2023-11-21T01:07:14;5.72;;;2.72;;
73428;SDS011;61643;49.564;17.412;2023-11-21T01:09:40;7.03;;;3.17;;
73428;SDS011;61643;49.564;17.412;2023-11-21T01:12:06;7.20;;;2.97;;
73428;SDS011;61643;49.564;17.412;2023-11-21T01:14:32;4.80;;;2.80;;
73428;SDS011;61643;49.564;17.412;2023-11-21T01:16:58;8.00;;;3.33;;
73428;SDS011;61643;49.564;17.412;2023-11-21T01:19:24;5.95;;;3.03;;
73428;SDS011;61643;49.564;17.412;2023-11-21T01:21:50;5.80;;;3.00;;
73428;SDS011;61643;49.564;17.412;2023-11-21T01:24:17;6.95;;;3.15;;
73428;SDS011;61643;49.564;17.412;2023-11-21T01:26:43;6.47;;;3.50;;
73428;SDS011;61643;49.564;17.412;2023-11-21T01:29:11;7.10;;;3.53;;
73428;SDS011;61643;49.564;17.412;2023-11-21T01:31:37;5.85;;;3.75;;
73428;SDS011;61643;49.564;17.412;2023-11-21T01:34:03;7.35;;;3.60;;
73428;SDS011;61643;49.564;17.412;2023-11-21T01:36:32;8.18;;;3.70;;
73428;SDS011;61643;49.564;17.412;2023-11-21T01:38:58;8.50;;;3.25;;
73428;SDS011;61643;49.564;17.412;2023-11-21T01:41:26;9.10;;;3.35;;
73428;SDS011;61643;49.564;17.412;2023-11-21T01:43:52;7.47;;;3.78;;
73428;SDS011;61643;49.564;17.412;2023-11-21T01:46:19;7.45;;;3.50;;
73428;SDS011;61643;49.564;17.412;2023-11-21T01:48:46;6.38;;;3.28;;
73428;SDS011;61643;49.564;17.412;2023-11-21T01:53:40;6.50;;;3.42;;
73428;SDS011;61643;49.564;17.412;2023-11-21T01:56:06;6.95;;;3.65;;
73428;SDS011;61643;49.564;17.412;2023-11-21T01:58:35;6.45;;;3.63;;
73428;SDS011;61643;49.564;17.412;2023-11-21T02:01:01;9.85;;;3.55;;
73428;SDS011;61643;49.564;17.412;2023-11-21T02:03:27;8.20;;;4.00;;
73428;SDS011;61643;49.564;17.412;2023-11-21T02:05:53;11.07;;;4.22;;
73428;SDS011;61643;49.564;17.412;2023-11-21T02:08:19;9.15;;;3.90;;
73428;SDS011;61643;49.564;17.412;2023-11-21T02:10:45;8.52;;;3.63;;
73428;SDS011;61643;49.564;17.412;2023-11-21T02:13:13;8.00;;;3.97;;
73428;SDS011;61643;49.564;17.412;2023-11-21T02:15:39;5.25;;;3.28;;
73428;SDS011;61643;49.564;17.412;2023-11-21T02:18:05;7.22;;;3.33;;
73428;SDS011;61643;49.564;17.412;2023-11-21T02:20:31;7.13;;;3.70;;
73428;SDS011;61643;49.564;17.412;2023-11-21T02:23:00;5.15;;;3.42;;
73428;SDS011;61643;49.564;17.412;2023-11-21T02:25:27;5.18;;;3.40;;
73428;SDS011;61643;49.564;17.412;2023-11-21T02:27:58;10.50;;;4.07;;
73428;SDS011;61643;49.564;17.412;2023-11-21T02:30:26;6.20;;;3.22;;
73428;SDS011;61643;49.564;17.412;2023-11-21T02:32:59;6.32;;;3.50;;
73428;SDS011;61643;49.564;17.412;2023-11-21T02:35:26;6.68;;;3.70;;
73428;SDS011;61643;49.564;17.412;2023-11-21T02:37:52;5.38;;;2.88;;
73428;SDS011;61643;49.564;17.412;2023-11-21T02:40:19;6.10;;;3.42;;
73428;SDS011;61643;49.564;17.412;2023-11-21T02:42:50;8.80;;;3.75;;
73428;SDS011;61643;49.564;17.412;2023-11-21T02:45:16;6.80;;;3.35;;
73428;SDS011;61643;49.564;17.412;2023-11-21T02:47:44;7.00;;;3.40;;
73428;SDS011;61643;49.564;17.412;2023-11-21T02:50:10;8.18;;;3.50;;
73428;SDS011;61643;49.564;17.412;2023-11-21T02:52:36;7.22;;;3.50;;
73428;SDS011;61643;49.564;17.412;2023-11-21T02:55:03;6.03;;;3.35;;
73428;SDS011;61643;49.564;17.412;2023-11-21T02:57:29;8.23;;;3.60;;
73428;SDS011;61643;49.564;17.412;2023-11-21T02:59:55;7.10;;;3.38;;
73428;SDS011;61643;49.564;17.412;2023-11-21T03:02:21;6.28;;;3.45;;
73428;SDS011;61643;49.564;17.412;2023-11-21T03:04:48;12.48;;;4.30;;
73428;SDS011;61643;49.564;17.412;2023-11-21T03:07:15;6.30;;;3.55;;
73428;SDS011;61643;49.564;17.412;2023-11-21T03:09:41;8.43;;;3.25;;
73428;SDS011;61643;49.564;17.412;2023-11-21T03:12:07;8.20;;;3.30;;
73428;SDS011;61643;49.564;17.412;2023-11-21T03:17:01;6.22;;;2.88;;
73428;SDS011;61643;49.564;17.412;2023-11-21T03:19:30;5.13;;;2.85;;
73428;SDS011;61643;49.564;17.412;2023-11-21T03:21:57;6.55;;;2.70;;
73428;SDS011;61643;49.564;17.412;2023-11-21T03:24:23;5.57;;;2.50;;
73428;SDS011;61643;49.564;17.412;2023-11-21T03:26:49;4.93;;;2.55;;
73428;SDS011;61643;49.564;17.412;2023-11-21T03:29:16;5.32;;;3.08;;
73428;SDS011;61643;49.564;17.412;2023-11-21T03:31:42;7.05;;;2.85;;
73428;SDS011;61643;49.564;17.412;2023-11-21T03:34:16;6.57;;;3.03;;
73428;SDS011;61643;49.564;17.412;2023-11-21T03:36:45;5.53;;;3.05;;
73428;SDS011;61643;49.564;17.412;2023-11-21T03:39:12;7.72;;;3.17;;
73428;SDS011;61643;49.564;17.412;2023-11-21T03:41:37;8.32;;;3.25;;
73428;SDS011;61643;49.564;17.412;2023-11-21T03:44:04;5.70;;;3.25;;
73428;SDS011;61643;49.564;17.412;2023-11-21T03:46:30;6.40;;;2.97;;
73428;SDS011;61643;49.564;17.412;2023-11-21T03:48:56;8.13;;;3.53;;
73428;SDS011;61643;49.564;17.412;2023-11-21T03:51:22;9.35;;;3.08;;
73428;SDS011;61643;49.564;17.412;2023-11-21T03:53:48;5.35;;;2.95;;
73428;SDS011;61643;49.564;17.412;2023-11-21T03:56:14;6.05;;;2.67;;
73428;SDS011;61643;49.564;17.412;2023-11-21T03:58:40;5.82;;;2.67;;
73428;SDS011;61643;49.564;17.412;2023-11-21T04:01:06;5.18;;;3.00;;
73428;SDS011;61643;49.564;17.412;2023-11-21T04:03:32;5.95;;;3.03;;
73428;SDS011;61643;49.564;17.412;2023-11-21T04:05:58;6.97;;;3.28;;
73428;SDS011;61643;49.564;17.412;2023-11-21T04:08:24;5.53;;;3.03;;
73428;SDS011;61643;49.564;17.412;2023-11-21T04:10:51;9.13;;;3.78;;
73428;SDS011;61643;49.564;17.412;2023-11-21T04:13:19;5.70;;;3.00;;
73428;SDS011;61643;49.564;17.412;2023-11-21T04:15:45;5.72;;;2.72;;
73428;SDS011;61643;49.564;17.412;2023-11-21T04:18:10;4.55;;;2.78;;
73428;SDS011;61643;49.564;17.412;2023-11-21T04:20:36;8.18;;;3.25;;
73428;SDS011;61643;49.564;17.412;2023-11-21T04:23:02;7.05;;;3.35;;
73428;SDS011;61643;49.564;17.412;2023-11-21T04:25:29;6.25;;;2.92;;
73428;SDS011;61643;49.564;17.412;2023-11-21T04:27:55;5.60;;;3.42;;
73428;SDS011;61643;49.564;17.412;2023-11-21T04:30:20;6.20;;;3.30;;
73428;SDS011;61643;49.564;17.412;2023-11-21T04:32:46;6.32;;;3.22;;
73428;SDS011;61643;49.564;17.412;2023-11-21T04:35:12;4.75;;;2.95;;
73428;SDS011;61643;49.564;17.412;2023-11-21T04:37:38;5.60;;;2.88;;
73428;SDS011;61643;49.564;17.412;2023-11-21T04:40:06;5.55;;;2.90;;
73428;SDS011;61643;49.564;17.412;2023-11-21T04:42:34;5.30;;;2.80;;
73428;SDS011;61643;49.564;17.412;2023-11-21T04:45:01;7.93;;;3.60;;
73428;SDS011;61643;49.564;17.412;2023-11-21T04:47:30;8.70;;;4.32;;
73428;SDS011;61643;49.564;17.412;2023-11-21T04:49:56;7.75;;;4.30;;
73428;SDS011;61643;49.564;17.412;2023-11-21T04:52:22;7.10;;;3.95;;
73428;SDS011;61643;49.564;17.412;2023-11-21T04:54:48;6.45;;;3.05;;
73428;SDS011;61643;49.564;17.412;2023-11-21T04:57:14;7.53;;;3.63;;
73428;SDS011;61643;49.564;17.412;2023-11-21T04:59:40;5.60;;;3.15;;
73428;SDS011;61643;49.564;17.412;2023-11-21T05:02:06;7.53;;;3.10;;
73428;SDS011;61643;49.564;17.412;2023-11-21T05:04:32;10.63;;;3.17;;
73428;SDS011;61643;49.564;17.412;2023-11-21T05:06:58;8.68;;;3.13;;
73428;SDS011;61643;49.564;17.412;2023-11-21T05:09:26;5.95;;;3.13;;
73428;SDS011;61643;49.564;17.412;2023-11-21T05:11:53;5.80;;;3.00;;
73428;SDS011;61643;49.564;17.412;2023-11-21T05:14:19;4.72;;;3.00;;
73428;SDS011;61643;49.564;17.412;2023-11-21T05:16:45;6.97;;;3.70;;
73428;SDS011;61643;49.564;17.412;2023-11-21T05:19:12;7.05;;;4.00;;
73428;SDS011;61643;49.564;17.412;2023-11-21T05:21:38;7.90;;;3.70;;
73428;SDS011;61643;49.564;17.412;2023-11-21T05:24:04;9.43;;;5.63;;
73428;SDS011;61643;49.564;17.412;2023-11-21T05:26:31;7.45;;;4.70;;
73428;SDS011;61643;49.564;17.412;2023-11-21T05:28:57;5.30;;;3.40;;
73428;SDS011;61643;49.564;17.412;2023-11-21T05:31:23;5.97;;;2.90;;
73428;SDS011;61643;49.564;17.412;2023-11-21T05:33:49;5.90;;;3.35;;
73428;SDS011;61643;49.564;17.412;2023-11-21T05:36:14;5.85;;;2.95;;
73428;SDS011;61643;49.564;17.412;2023-11-21T05:38:40;7.00;;;3.33;;
73428;SDS011;61643;49.564;17.412;2023-11-21T05:41:07;6.25;;;3.53;;
73428;SDS011;61643;49.564;17.412;2023-11-21T05:43:33;8.38;;;3.17;;
73428;SDS011;61643;49.564;17.412;2023-11-21T05:46:01;4.90;;;3.10;;
73428;SDS011;61643;49.564;17.412;2023-11-21T05:48:27;4.93;;;3.00;;
73428;SDS011;61643;49.564;17.412;2023-11-21T05:50:54;9.32;;;3.20;;
73428;SDS011;61643;49.564;17.412;2023-11-21T05:53:34;4.55;;;2.72;;
73428;SDS011;61643;49.564;17.412;2023-11-21T05:56:00;8.25;;;3.60;;
73428;SDS011;61643;49.564;17.412;2023-11-21T05:58:26;7.63;;;3.53;;
73428;SDS011;61643;49.564;17.412;2023-11-21T06:00:52;4.93;;;3.35;;
73428;SDS011;61643;49.564;17.412;2023-11-21T06:03:18;7.78;;;3.95;;
73428;SDS011;61643;49.564;17.412;2023-11-21T06:05:44;7.53;;;3.90;;
73428;SDS011;61643;49.564;17.412;2023-11-21T06:08:10;10.02;;;3.85;;
73428;SDS011;61643;49.564;17.412;2023-11-21T06:10:36;8.10;;;3.90;;
73428;SDS011;61643;49.564;17.412;2023-11-21T06:13:02;10.30;;;3.53;;
73428;SDS011;61643;49.564;17.412;2023-11-21T06:15:29;7.10;;;3.85;;
73428;SDS011;61643;49.564;17.412;2023-11-21T06:17:55;9.57;;;3.83;;
73428;SDS011;61643;49.564;17.412;2023-11-21T06:20:21;14.88;;;5.43;;
73428;SDS011;61643;49.564;17.412;2023-11-21T06:22:48;8.50;;;4.15;;
73428;SDS011;61643;49.564;17.412;2023-11-21T06:25:15;8.27;;;4.50;;
73428;SDS011;61643;49.564;17.412;2023-11-21T06:27:43;7.40;;;4.07;;
73428;SDS011;61643;49.564;17.412;2023-11-21T06:30:10;6.57;;;3.50;;
73428;SDS011;61643;49.564;17.412;2023-11-21T06:32:39;6.70;;;4.05;;
73428;SDS011;61643;49.564;17.412;2023-11-21T06:35:05;5.10;;;3.30;;
73428;SDS011;61643;49.564;17.412;2023-11-21T06:37:32;8.52;;;3.20;;
73428;SDS011;61643;49.564;17.412;2023-11-21T06:39:59;5.82;;;3.05;;
73428;SDS011;61643;49.564;17.412;2023-11-21T06:42:26;5.82;;;2.70;;
73428;SDS011;61643;49.564;17.412;2023-11-21T06:44:52;4.22;;;2.72;;
73428;SDS011;61643;49.564;17.412;2023-11-21T06:47:19;5.55;;;3.22;;
73428;SDS011;61643;49.564;17.412;2023-11-21T06:49:46;9.35;;;3.35;;
73428;SDS011;61643;49.564;17.412;2023-11-21T06:52:15;7.53;;;3.58;;
73428;SDS011;61643;49.564;17.412;2023-11-21T06:54:41;6.25;;;3.28;;
73428;SDS011;61643;49.564;17.412;2023-11-21T06:57:07;7.03;;;3.42;;
73428;SDS011;61643;49.564;17.412;2023-11-21T06:59:33;8.63;;;3.30;;
73428;SDS011;61643;49.564;17.412;2023-11-21T07:01:59;5.75;;;2.95;;
73428;SDS011;61643;49.564;17.412;2023-11-21T07:04:25;7.75;;;3.03;;
73428;SDS011;61643;49.564;17.412;2023-11-21T07:06:53;6.60;;;3.55;;
73428;SDS011;61643;49.564;17.412;2023-11-21T07:09:19;11.35;;;3.42;;
73428;SDS011;61643;49.564;17.412;2023-11-21T07:11:50;6.78;;;3.50;;
73428;SDS011;61643;49.564;17.412;2023-11-21T07:14:19;7.40;;;3.90;;
73428;SDS011;61643;49.564;17.412;2023-11-21T07:16:46;9.07;;;4.00;;
73428;SDS011;61643;49.564;17.412;2023-11-21T07:19:12;9.73;;;4.82;;
73428;SDS011;61643;49.564;17.412;2023-11-21T07:21:39;11.73;;;4.22;;
73428;SDS011;61643;49.564;17.412;2023-11-21T07:24:05;9.48;;;4.78;;
73428;SDS011;61643;49.564;17.412;2023-11-21T07:26:33;9.60;;;4.68;;
73428;SDS011;61643;49.564;17.412;2023-11-21T07:29:00;10.77;;;4.85;;
73428;SDS011;61643;49.564;17.412;2023-11-21T07:31:26;14.13;;;4.80;;
73428;SDS011;61643;49.564;17.412;2023-11-21T07:33:53;10.18;;;4.45;;
73428;SDS011;61643;49.564;17.412;2023-11-21T07:36:19;11.38;;;4.75;;
73428;SDS011;61643;49.564;17.412;2023-11-21T07:38:46;10.90;;;4.18;;
73428;SDS011;61643;49.564;17.412;2023-11-21T07:41:13;7.55;;;4.63;;
73428;SDS011;61643;49.564;17.412;2023-11-21T07:43:41;9.50;;;5.78;;
73428;SDS011;61643;49.564;17.412;2023-11-21T07:46:08;10.98;;;5.53;;
73428;SDS011;61643;49.564;17.412;2023-11-21T07:48:34;10.88;;;5.53;;
73428;SDS011;61643;49.564;17.412;2023-11-21T07:51:01;10.65;;;4.93;;
73428;SDS011;61643;49.564;17.412;2023-11-21T07:53:30;8.65;;;4.57;;
73428;SDS011;61643;49.564;17.412;2023-11-21T07:55:57;9.38;;;5.00;;
73428;SDS011;61643;49.564;17.412;2023-11-21T07:58:27;10.90;;;5.25;;
73428;SDS011;61643;49.564;17.412;2023-11-21T08:00:54;12.02;;;5.60;;
73428;SDS011;61643;49.564;17.412;2023-11-21T08:03:20;12.05;;;5.13;;
73428;SDS011;61643;49.564;17.412;2023-11-21T08:05:46;12.15;;;5.82;;
73428;SDS011;61643;49.564;17.412;2023-11-21T08:08:12;10.85;;;5.43;;
73428;SDS011;61643;49.564;17.412;2023-11-21T08:10:38;13.38;;;5.55;;
73428;SDS011;61643;49.564;17.412;2023-11-21T08:13:05;11.48;;;5.63;;
73428;SDS011;61643;49.564;17.412;2023-11-21T08:15:32;9.68;;;5.03;;
73428;SDS011;61643;49.564;17.412;2023-11-21T08:17:58;14.13;;;5.47;;
73428;SDS011;61643;49.564;17.412;2023-11-21T08:20:27;10.93;;;4.80;;
73428;SDS011;61643;49.564;17.412;2023-11-21T08:22:53;10.20;;;5.30;;
73428;SDS011;61643;49.564;17.412;2023-11-21T08:25:22;11.00;;;4.97;;
73428;SDS011;61643;49.564;17.412;2023-11-21T08:27:48;10.10;;;4.95;;
73428;SDS011;61643;49.564;17.412;2023-11-21T08:30:14;8.52;;;4.53;;
73428;SDS011;61643;49.564;17.412;2023-11-21T08:32:42;8.25;;;4.22;;
73428;SDS011;61643;49.564;17.412;2023-11-21T08:35:08;11.52;;;4.63;;
73428;SDS011;61643;49.564;17.412;2023-11-21T08:37:34;6.88;;;3.92;;
73428;SDS011;61643;49.564;17.412;2023-11-21T08:40:04;5.53;;;3.80;;
73428;SDS011;61643;49.564;17.412;2023-11-21T08:42:35;6.03;;;3.75;;
73428;SDS011;61643;49.564;17.412;2023-11-21T08:45:01;7.63;;;3.92;;
73428;SDS011;61643;49.564;17.412;2023-11-21T08:47:27;7.25;;;4.25;;
73428;SDS011;61643;49.564;17.412;2023-11-21T08:49:53;6.63;;;3.85;;
73428;SDS011;61643;49.564;17.412;2023-11-21T08:52:19;7.85;;;4.07;;
73428;SDS011;61643;49.564;17.412;2023-11-21T08:54:51;8.63;;;3.97;;
73428;SDS011;61643;49.564;17.412;2023-11-21T08:57:21;6.97;;;3.83;;
73428;SDS011;61643;49.564;17.412;2023-11-21T08:59:48;6.72;;;3.70;;
73428;SDS011;61643;49.564;17.412;2023-11-21T09:02:14;8.77;;;3.92;;
73428;SDS011;61643;49.564;17.412;2023-11-21T09:04:40;6.03;;;3.67;;
73428;SDS011;61643;49.564;17.412;2023-11-21T09:07:07;7.35;;;3.45;;
73428;SDS011;61643;49.564;17.412;2023-11-21T09:09:33;6.45;;;3.50;;
73428;SDS011;61643;49.564;17.412;2023-11-21T09:11:59;6.50;;;3.75;;
73428;SDS011;61643;49.564;17.412;2023-11-21T09:14:27;6.28;;;3.13;;
73428;SDS011;61643;49.564;17.412;2023-11-21T09:16:53;7.80;;;3.50;;
73428;SDS011;61643;49.564;17.412;2023-11-21T09:19:19;6.40;;;3.90;;
73428;SDS011;61643;49.564;17.412;2023-11-21T09:21:45;7.10;;;3.90;;
73428;SDS011;61643;49.564;17.412;2023-11-21T09:24:11;8.75;;;3.50;;
73428;SDS011;61643;49.564;17.412;2023-11-21T09:26:37;8.35;;;3.75;;
73428;SDS011;61643;49.564;17.412;2023-11-21T09:29:03;10.10;;;4.03;;
73428;SDS011;61643;49.564;17.412;2023-11-21T09:31:29;7.57;;;3.80;;
73428;SDS011;61643;49.564;17.412;2023-11-21T09:33:56;7.70;;;3.90;;
73428;SDS011;61643;49.564;17.412;2023-11-21T09:36:22;11.45;;;5.55;;
73428;SDS011;61643;49.564;17.412;2023-11-21T09:38:52;8.07;;;4.15;;
73428;SDS011;61643;49.564;17.412;2023-11-21T09:44:06;7.85;;;4.03;;
73428;SDS011;61643;49.564;17.412;2023-11-21T09:46:37;6.85;;;3.80;;
73428;SDS011;61643;49.564;17.412;2023-11-21T09:49:06;7.72;;;4.13;;
73428;SDS011;61643;49.564;17.412;2023-11-21T09:51:39;6.10;;;3.58;;
73428;SDS011;61643;49.564;17.412;2023-11-21T09:54:08;7.10;;;3.80;;
73428;SDS011;61643;49.564;17.412;2023-11-21T09:56:37;9.02;;;4.35;;
73428;SDS011;61643;49.564;17.412;2023-11-21T09:59:03;12.43;;;7.50;;
73428;SDS011;61643;49.564;17.412;2023-11-21T10:01:35;10.45;;;4.78;;
73428;SDS011;61643;49.564;17.412;2023-11-21T10:04:02;9.73;;;4.75;;
73428;SDS011;61643;49.564;17.412;2023-11-21T10:06:28;11.20;;;5.05;;
73428;SDS011;61643;49.564;17.412;2023-11-21T10:08:54;7.88;;;4.40;;
73428;SDS011;61643;49.564;17.412;2023-11-21T10:11:24;8.15;;;4.80;;
73428;SDS011;61643;49.564;17.412;2023-11-21T10:13:54;8.13;;;4.70;;
73428;SDS011;61643;49.564;17.412;2023-11-21T10:16:22;10.90;;;4.55;;
73428;SDS011;61643;49.564;17.412;2023-11-21T10:18:54;9.52;;;4.63;;
73428;SDS011;61643;49.564;17.412;2023-11-21T10:21:21;13.18;;;6.43;;
73428;SDS011;61643;49.564;17.412;2023-11-21T10:23:47;11.10;;;5.57;;
73428;SDS011;61643;49.564;17.412;2023-11-21T10:26:14;8.35;;;4.88;;
73428;SDS011;61643;49.564;17.412;2023-11-21T10:29:05;8.85;;;4.88;;
73428;SDS011;61643;49.564;17.412;2023-11-21T10:31:31;9.63;;;4.50;;
73428;SDS011;61643;49.564;17.412;2023-11-21T10:34:13;8.73;;;5.10;;
73428;SDS011;61643;49.564;17.412;2023-11-21T10:36:43;10.25;;;5.47;;
73428;SDS011;61643;49.564;17.412;2023-11-21T10:39:14;8.75;;;5.20;;
73428;SDS011;61643;49.564;17.412;2023-11-21T10:41:44;10.05;;;4.95;;
73428;SDS011;61643;49.564;17.412;2023-11-21T10:44:13;10.27;;;5.15;;
73428;SDS011;61643;49.564;17.412;2023-11-21T10:46:50;11.52;;;6.18;;
73428;SDS011;61643;49.564;17.412;2023-11-21T10:49:17;11.07;;;4.97;;
73428;SDS011;61643;49.564;17.412;2023-11-21T10:51:44;9.47;;;5.00;;
73428;SDS011;61643;49.564;17.412;2023-11-21T10:54:10;9.60;;;4.82;;
73428;SDS011;61643;49.564;17.412;2023-11-21T10:56:39;9.15;;;4.90;;
73428;SDS011;61643;49.564;17.412;2023-11-21T10:59:09;10.80;;;4.85;;
73428;SDS011;61643;49.564;17.412;2023-11-21T11:01:42;8.73;;;4.53;;
73428;SDS011;61643;49.564;17.412;2023-11-21T11:04:13;11.27;;;4.93;;
73428;SDS011;61643;49.564;17.412;2023-11-21T11:06:42;9.20;;;4.82;;
73428;SDS011;61643;49.564;17.412;2023-11-21T11:09:10;7.95;;;4.53;;
73428;SDS011;61643;49.564;17.412;2023-11-21T11:11:42;8.48;;;5.22;;
73428;SDS011;61643;49.564;17.412;2023-11-21T11:14:13;10.98;;;5.53;;
73428;SDS011;61643;49.564;17.412;2023-11-21T11:16:39;10.88;;;5.20;;
73428;SDS011;61643;49.564;17.412;2023-11-21T11:19:07;8.93;;;5.30;;
73428;SDS011;61643;49.564;17.412;2023-11-21T11:22:24;10.45;;;6.03;;
73428;SDS011;61643;49.564;17.412;2023-11-21T11:38:31;9.90;;;5.47;;
73428;SDS011;61643;49.564;17.412;2023-11-21T11:41:01;10.65;;;6.35;;
73428;SDS011;61643;49.564;17.412;2023-11-21T11:43:29;15.50;;;7.97;;
73428;SDS011;61643;49.564;17.412;2023-11-21T11:45:58;15.93;;;7.72;;
73428;SDS011;61643;49.564;17.412;2023-11-21T11:48:25;11.90;;;6.70;;
73428;SDS011;61643;49.564;17.412;2023-11-21T11:51:01;21.27;;;10.15;;
73428;SDS011;61643;49.564;17.412;2023-11-21T11:53:33;18.13;;;9.82;;
73428;SDS011;61643;49.564;17.412;2023-11-21T11:59:02;16.70;;;8.85;;
73428;SDS011;61643;49.564;17.412;2023-11-21T12:01:29;20.75;;;9.45;;
73428;SDS011;61643;49.564;17.412;2023-11-21T12:06:57;16.38;;;8.73;;
73428;SDS011;61643;49.564;17.412;2023-11-21T12:09:29;17.92;;;8.80;;
73428;SDS011;61643;49.564;17.412;2023-11-21T12:11:57;15.15;;;7.43;;
73428;SDS011;61643;49.564;17.412;2023-11-21T12:14:23;14.50;;;7.53;;
73428;SDS011;61643;49.564;17.412;2023-11-21T12:16:49;11.88;;;7.30;;
73428;SDS011;61643;49.564;17.412;2023-11-21T12:19:15;14.65;;;7.53;;
73428;SDS011;61643;49.564;17.412;2023-11-21T12:21:41;16.63;;;7.75;;
73428;SDS011;61643;49.564;17.412;2023-11-21T12:24:07;15.93;;;9.02;;
73428;SDS011;61643;49.564;17.412;2023-11-21T12:26:42;18.48;;;8.80;;
73428;SDS011;61643;49.564;17.412;2023-11-21T12:29:09;16.52;;;8.85;;
73428;SDS011;61643;49.564;17.412;2023-11-21T12:31:36;19.17;;;9.90;;
73428;SDS011;61643;49.564;17.412;2023-11-21T12:34:02;54.72;;;18.27;;
73428;SDS011;61643;49.564;17.412;2023-11-21T12:36:29;155.30;;;38.15;;
73428;SDS011;61643;49.564;17.412;2023-11-21T12:38:56;175.25;;;43.00;;
73428;SDS011;61643;49.564;17.412;2023-11-21T12:41:22;115.68;;;31.40;;
73428;SDS011;61643;49.564;17.412;2023-11-21T12:43:48;78.75;;;21.15;;
73428;SDS011;61643;49.564;17.412;2023-11-21T12:46:14;58.90;;;17.58;;
73428;SDS011;61643;49.564;17.412;2023-11-21T12:48:40;44.05;;;15.68;;
73428;SDS011;61643;49.564;17.412;2023-11-21T12:51:10;31.73;;;12.35;;
73428;SDS011;61643;49.564;17.412;2023-11-21T12:53:37;25.27;;;10.95;;
73428;SDS011;61643;49.564;17.412;2023-11-21T12:56:09;16.60;;;8.20;;
73428;SDS011;61643;49.564;17.412;2023-11-21T12:58:36;13.77;;;7.45;;
73428;SDS011;61643;49.564;17.412;2023-11-21T13:01:05;10.82;;;4.88;;
73428;SDS011;61643;49.564;17.412;2023-11-21T13:03:37;11.00;;;5.72;;
73428;SDS011;61643;49.564;17.412;2023-11-21T13:06:04;8.88;;;5.15;;
73428;SDS011;61643;49.564;17.412;2023-11-21T13:08:30;11.95;;;5.90;;
73428;SDS011;61643;49.564;17.412;2023-11-21T13:10:58;15.55;;;8.13;;
73428;SDS011;61643;49.564;17.412;2023-11-21T13:13:25;11.77;;;6.13;;
73428;SDS011;61643;49.564;17.412;2023-11-21T13:15:54;12.10;;;5.60;;
73428;SDS011;61643;49.564;17.412;2023-11-21T13:18:22;9.82;;;4.88;;
73428;SDS011;61643;49.564;17.412;2023-11-21T13:20:49;15.85;;;7.85;;
73428;SDS011;61643;49.564;17.412;2023-11-21T13:23:16;15.18;;;7.35;;
73428;SDS011;61643;49.564;17.412;2023-11-21T13:25:42;9.85;;;5.95;;
73428;SDS011;61643;49.564;17.412;2023-11-21T13:28:11;12.95;;;6.30;;
73428;SDS011;61643;49.564;17.412;2023-11-21T13:30:38;17.92;;;8.68;;
73428;SDS011;61643;49.564;17.412;2023-11-21T13:33:06;22.30;;;9.23;;
73428;SDS011;61643;49.564;17.412;2023-11-21T13:35:34;18.33;;;8.88;;
73428;SDS011;61643;49.564;17.412;2023-11-21T13:38:09;12.23;;;6.60;;
73428;SDS011;61643;49.564;17.412;2023-11-21T13:40:37;13.23;;;7.78;;
73428;SDS011;61643;49.564;17.412;2023-11-21T13:43:12;10.52;;;6.43;;
73428;SDS011;61643;49.564;17.412;2023-11-21T13:45:39;11.20;;;5.57;;
73428;SDS011;61643;49.564;17.412;2023-11-21T13:48:06;14.23;;;7.93;;
73428;SDS011;61643;49.564;17.412;2023-11-21T13:50:36;15.45;;;7.95;;
73428;SDS011;61643;49.564;17.412;2023-11-21T13:53:03;14.65;;;7.60;;
73428;SDS011;61643;49.564;17.412;2023-11-21T13:55:44;15.98;;;8.55;;
73428;SDS011;61643;49.564;17.412;2023-11-21T13:58:11;14.57;;;7.43;;
73428;SDS011;61643;49.564;17.412;2023-11-21T14:00:43;12.40;;;7.38;;
73428;SDS011;61643;49.564;17.412;2023-11-21T14:03:12;18.38;;;8.73;;
73428;SDS011;61643;49.564;17.412;2023-11-21T14:05:49;14.73;;;8.52;;
73428;SDS011;61643;49.564;17.412;2023-11-21T14:08:19;12.73;;;7.85;;
73428;SDS011;61643;49.564;17.412;2023-11-21T14:13:23;20.58;;;10.68;;
73428;SDS011;61643;49.564;17.412;2023-11-21T14:15:50;16.67;;;9.70;;
73428;SDS011;61643;49.564;17.412;2023-11-21T14:18:23;14.55;;;8.30;;
73428;SDS011;61643;49.564;17.412;2023-11-21T14:20:57;17.55;;;8.88;;
73428;SDS011;61643;49.564;17.412;2023-11-21T14:23:23;33.00;;;13.52;;
73428;SDS011;61643;49.564;17.412;2023-11-21T14:25:49;234.40;;;63.15;;
73428;SDS011;61643;49.564;17.412;2023-11-21T14:28:18;333.40;;;87.45;;
73428;SDS011;61643;49.564;17.412;2023-11-21T14:30:47;374.35;;;98.35;;
73428;SDS011;61643;49.564;17.412;2023-11-21T14:33:13;328.33;;;79.00;;
73428;SDS011;61643;49.564;17.412;2023-11-21T14:35:42;354.52;;;86.68;;
73428;SDS011;61643;49.564;17.412;2023-11-21T14:38:08;271.27;;;62.45;;
73428;SDS011;61643;49.564;17.412;2023-11-21T14:40:36;274.23;;;63.40;;
73428;SDS011;61643;49.564;17.412;2023-11-21T14:43:02;54.33;;;15.63;;
73428;SDS011;61643;49.564;17.412;2023-11-21T14:45:32;21.35;;;8.75;;
73428;SDS011;61643;49.564;17.412;2023-11-21T14:47:59;121.47;;;29.88;;
73428;SDS011;61643;49.564;17.412;2023-11-21T14:50:32;111.38;;;29.10;;
73428;SDS011;61643;49.564;17.412;2023-11-21T14:53:09;73.97;;;21.98;;
73428;SDS011;61643;49.564;17.412;2023-11-21T14:55:38;77.05;;;23.40;;
73428;SDS011;61643;49.564;17.412;2023-11-21T14:58:17;75.88;;;21.23;;
73428;SDS011;61643;49.564;17.412;2023-11-21T15:01:01;51.38;;;17.00;;